Time;durP1;ratioP1;P1;durP2;ratioP2;P2;SDS_P1;SDS_P2;PMS_P1;PMS_P2;Temp;Humidity;BMP_temperature;BMP_pressure;BME280_temperature;BME280_humidity;BME280_pressure;Samples;Min_cycle;Max_cycle;Signal;HPM_P1;HPM_P2
2021/10/13 00:01:20;;;;;;;25.67;23.23;;;4.30;99.90;;;;;;5089316;28;20473;-67
2021/10/13 00:03:47;;;;;;;25.73;23.47;;;4.40;99.90;;;;;;5093831;28;20504;-67
2021/10/13 00:06:15;;;;;;;25.33;23.13;;;4.40;99.90;;;;;;5092736;28;20858;-67
2021/10/13 00:08:42;;;;;;;26.67;24.47;;;4.50;99.90;;;;;;5095133;28;20461;-67
2021/10/13 00:11:08;;;;;;;25.37;22.70;;;4.50;99.90;;;;;;5097067;28;20461;-67
2021/10/13 00:13:36;;;;;;;24.60;22.40;;;4.50;99.90;;;;;;5098872;28;20893;-67
2021/10/13 00:16:05;;;;;;;25.13;23.00;;;4.50;99.90;;;;;;5096601;28;20454;-67
2021/10/13 00:18:33;;;;;;;24.90;22.67;;;4.40;99.90;;;;;;5094475;28;20462;-67
2021/10/13 00:21:00;;;;;;;25.23;23.10;;;4.40;99.90;;;;;;5092780;28;20519;-67
2021/10/13 00:23:27;;;;;;;27.17;24.63;;;4.30;99.90;;;;;;5096168;28;21061;-67
2021/10/13 00:25:54;;;;;;;27.00;24.60;;;4.30;99.90;;;;;;5096692;28;20489;-67
2021/10/13 00:28:21;;;;;;;25.63;22.90;;;4.40;99.90;;;;;;5094736;28;20453;-67
2021/10/13 00:30:49;;;;;;;26.07;23.60;;;4.40;99.90;;;;;;5095723;28;20461;-67
2021/10/13 00:33:19;;;;;;;25.30;23.20;;;4.50;99.90;;;;;;5087028;28;20892;-67
2021/10/13 00:35:47;;;;;;;24.73;22.60;;;4.50;99.90;;;;;;5101692;28;20880;-67
2021/10/13 00:38:16;;;;;;;25.20;22.60;;;4.60;99.90;;;;;;5094510;28;20449;-67
2021/10/13 00:40:43;;;;;;;24.80;22.97;;;4.70;99.90;;;;;;5097818;28;21044;-67
2021/10/13 00:43:10;;;;;;;25.27;23.07;;;4.70;99.90;;;;;;5097542;28;20458;-67
2021/10/13 00:45:36;;;;;;;25.10;23.00;;;4.60;99.90;;;;;;5098528;28;20986;-67
2021/10/13 00:48:03;;;;;;;25.30;23.13;;;4.60;99.90;;;;;;5099270;28;21289;-67
2021/10/13 00:50:32;;;;;;;25.10;22.57;;;4.50;99.90;;;;;;5102456;28;20625;-67
2021/10/13 00:52:59;;;;;;;25.03;22.70;;;4.40;99.90;;;;;;5096528;28;20961;-66
2021/10/13 00:55:26;;;;;;;27.40;25.40;;;4.30;99.90;;;;;;5095757;28;20488;-67
2021/10/13 00:57:54;;;;;;;25.60;22.93;;;4.30;99.90;;;;;;5095269;28;20454;-67
2021/10/13 01:00:23;;;;;;;26.33;23.80;;;4.20;99.90;;;;;;5094814;28;20514;-67
2021/10/13 01:02:59;;;;;;;26.77;24.27;;;4.20;99.90;;;;;;5092605;28;20462;-67
2021/10/13 01:05:41;;;;;;;26.03;24.00;;;4.30;99.90;;;;;;5101938;28;20456;-67
2021/10/13 01:08:15;;;;;;;26.07;23.50;;;4.40;99.90;;;;;;5097260;28;20461;-67
2021/10/13 01:10:54;;;;;;;26.60;24.33;;;4.30;99.90;;;;;;5093524;28;20464;-67
2021/10/13 01:13:28;;;;;;;24.20;22.13;;;4.40;99.90;;;;;;5092359;28;20464;-67
2021/10/13 01:16:02;;;;;;;24.47;22.30;;;4.30;99.90;;;;;;5096457;28;20993;-67
2021/10/13 01:18:35;;;;;;;25.97;23.83;;;4.20;99.90;;;;;;5097086;28;20556;-67
2021/10/13 01:21:14;;;;;;;24.73;22.67;;;4.10;99.90;;;;;;5102412;28;20461;-66
2021/10/13 01:23:56;;;;;;;25.23;23.00;;;4.10;99.90;;;;;;5094547;28;20520;-67
2021/10/13 01:26:30;;;;;;;25.00;23.00;;;4.20;99.90;;;;;;5105268;28;20528;-67
2021/10/13 01:29:05;;;;;;;26.10;23.77;;;4.20;99.90;;;;;;5095521;28;20551;-67
2021/10/13 01:31:40;;;;;;;25.40;23.50;;;4.20;99.90;;;;;;5097334;28;20468;-67
2021/10/13 01:34:10;;;;;;;25.70;23.20;;;4.20;99.90;;;;;;5098116;28;20468;-66
2021/10/13 01:36:42;;;;;;;24.87;22.80;;;4.20;99.90;;;;;;5093067;28;20465;-66
2021/10/13 01:39:11;;;;;;;26.00;24.10;;;4.20;99.90;;;;;;5100763;28;20493;-66
2021/10/13 01:41:41;;;;;;;24.20;22.50;;;4.20;99.90;;;;;;5096575;28;20483;-67
2021/10/13 01:44:13;;;;;;;24.87;22.87;;;4.10;99.90;;;;;;5096568;28;20469;-67
2021/10/13 01:46:44;;;;;;;25.83;23.60;;;4.00;99.90;;;;;;5095352;28;20489;-67
2021/10/13 01:49:12;;;;;;;26.47;24.37;;;4.00;99.90;;;;;;5098050;28;20518;-67
2021/10/13 01:51:39;;;;;;;25.37;23.27;;;4.00;99.90;;;;;;5096489;28;20461;-67
2021/10/13 01:54:07;;;;;;;28.23;25.00;;;4.00;99.90;;;;;;5100438;28;20845;-67
2021/10/13 01:56:37;;;;;;;25.57;23.30;;;3.90;99.90;;;;;;5102173;28;20466;-66
2021/10/13 01:59:08;;;;;;;27.00;24.80;;;4.00;99.90;;;;;;5097056;28;20488;-67
2021/10/13 02:01:39;;;;;;;27.70;25.17;;;4.00;99.90;;;;;;5092156;28;20476;-66
2021/10/13 02:04:10;;;;;;;26.30;23.90;;;4.10;99.90;;;;;;5097139;28;20496;-67
2021/10/13 02:06:39;;;;;;;26.13;24.13;;;4.20;99.90;;;;;;5096648;28;20494;-67
2021/10/13 02:09:07;;;;;;;25.00;23.13;;;4.20;99.90;;;;;;5103471;28;20469;-67
2021/10/13 02:11:36;;;;;;;26.97;24.50;;;4.30;99.90;;;;;;5094683;28;20469;-67
2021/10/13 02:14:07;;;;;;;25.97;23.90;;;4.40;99.90;;;;;;5094994;28;20454;-67
2021/10/13 02:16:38;;;;;;;26.30;23.73;;;4.60;99.90;;;;;;5100555;28;20471;-67
2021/10/13 02:19:08;;;;;;;24.43;22.10;;;4.80;99.90;;;;;;5097949;28;20486;-67
2021/10/13 02:21:38;;;;;;;23.20;21.40;;;4.90;99.90;;;;;;5096034;28;23073;-67
2021/10/13 02:24:08;;;;;;;23.17;21.30;;;5.00;99.90;;;;;;5094801;28;20883;-67
2021/10/13 02:26:42;;;;;;;24.87;22.30;;;5.10;99.90;;;;;;5095679;28;20489;-67
2021/10/13 02:29:13;;;;;;;25.23;22.90;;;5.10;99.90;;;;;;5096793;28;20663;-66
2021/10/13 02:31:43;;;;;;;25.67;22.93;;;5.10;99.90;;;;;;5093471;28;20994;-67
2021/10/13 02:34:12;;;;;;;30.90;24.43;;;5.20;99.90;;;;;;5097382;28;20468;-67
2021/10/13 02:36:41;;;;;;;26.00;23.50;;;5.30;99.90;;;;;;5093474;28;20457;-67
2021/10/13 02:39:09;;;;;;;34.43;23.93;;;5.40;99.90;;;;;;5099613;28;20549;-67
2021/10/13 02:41:37;;;;;;;26.80;23.17;;;5.60;99.90;;;;;;5100134;28;20464;-66
2021/10/13 02:44:06;;;;;;;27.20;24.00;;;5.60;99.90;;;;;;5094684;28;20991;-67
2021/10/13 02:46:38;;;;;;;27.73;23.53;;;5.60;99.90;;;;;;5095991;28;20472;-67
2021/10/13 02:49:13;;;;;;;24.83;22.70;;;5.70;99.90;;;;;;5102958;28;20454;-67
2021/10/13 02:51:45;;;;;;;25.47;22.97;;;5.70;99.90;;;;;;5091688;28;20947;-67
2021/10/13 02:54:17;;;;;;;26.57;24.27;;;5.70;99.90;;;;;;5090899;28;20460;-67
2021/10/13 02:56:49;;;;;;;27.03;24.07;;;5.80;99.90;;;;;;5098040;28;20468;-67
2021/10/13 02:59:18;;;;;;;23.60;21.60;;;5.90;99.90;;;;;;5100634;28;20478;-67
2021/10/13 03:01:46;;;;;;;27.13;24.30;;;6.00;99.90;;;;;;5087122;28;20497;-67
2021/10/13 03:04:18;;;;;;;26.60;23.77;;;6.10;99.90;;;;;;5094965;28;20826;-67
2021/10/13 03:06:51;;;;;;;25.77;23.00;;;6.10;99.90;;;;;;5095400;28;20567;-67
2021/10/13 03:09:21;;;;;;;25.70;23.40;;;6.10;99.90;;;;;;5093723;28;20461;-67
2021/10/13 03:11:49;;;;;;;26.60;22.80;;;6.10;99.90;;;;;;5098485;28;20735;-67
2021/10/13 03:14:21;;;;;;;26.33;23.60;;;6.00;99.90;;;;;;5104492;28;20461;-67
2021/10/13 03:16:52;;;;;;;26.77;24.30;;;6.10;99.90;;;;;;5094553;28;20451;-67
2021/10/13 03:19:23;;;;;;;25.20;23.07;;;6.10;99.90;;;;;;5098625;28;20457;-67
2021/10/13 03:21:51;;;;;;;26.47;24.30;;;6.10;99.90;;;;;;5095807;28;20823;-67
2021/10/13 03:24:19;;;;;;;25.07;22.77;;;6.20;99.90;;;;;;5095529;28;20465;-66
2021/10/13 03:26:47;;;;;;;26.87;24.33;;;6.30;99.90;;;;;;5100290;28;20489;-67
2021/10/13 03:29:14;;;;;;;28.20;23.07;;;6.30;99.90;;;;;;5093365;28;20477;-67
2021/10/13 03:31:43;;;;;;;25.33;23.00;;;6.30;99.90;;;;;;5094444;28;20461;-67
2021/10/13 03:34:11;;;;;;;25.80;23.23;;;6.30;99.90;;;;;;5093503;28;20826;-66
2021/10/13 03:36:41;;;;;;;26.17;23.77;;;6.30;99.90;;;;;;5081841;28;21006;-67
2021/10/13 03:39:08;;;;;;;25.93;23.07;;;6.30;99.90;;;;;;5102135;28;20916;-67
2021/10/13 03:41:35;;;;;;;26.20;24.10;;;6.30;99.90;;;;;;5102456;28;20549;-67
2021/10/13 03:44:03;;;;;;;25.43;22.90;;;6.30;99.90;;;;;;5099712;28;20461;-67
2021/10/13 03:46:30;;;;;;;25.83;23.53;;;6.30;99.90;;;;;;5100404;28;20475;-69
2021/10/13 03:48:57;;;;;;;26.97;24.23;;;6.20;99.90;;;;;;5090962;28;20986;-67
2021/10/13 03:51:24;;;;;;;24.53;22.63;;;6.10;99.90;;;;;;5100507;28;20999;-67
2021/10/13 03:53:53;;;;;;;27.13;23.67;;;6.20;99.90;;;;;;5098282;28;20466;-67
2021/10/13 03:56:20;;;;;;;26.67;24.10;;;6.10;99.90;;;;;;5097301;28;20463;-67
2021/10/13 03:58:47;;;;;;;29.20;22.43;;;6.10;99.90;;;;;;5098630;28;20901;-67
2021/10/13 04:01:14;;;;;;;25.03;22.37;;;6.00;99.90;;;;;;5087430;28;20916;-67
2021/10/13 04:03:42;;;;;;;26.90;24.10;;;5.90;99.90;;;;;;5093195;28;20449;-67
2021/10/13 04:06:10;;;;;;;26.30;23.93;;;5.90;99.90;;;;;;5096945;28;21041;-67
2021/10/13 04:08:39;;;;;;;31.43;25.00;;;5.90;99.90;;;;;;5095085;28;20469;-67
2021/10/13 04:11:08;;;;;;;26.53;23.80;;;5.80;99.90;;;;;;5090981;28;20487;-67
2021/10/13 04:13:36;;;;;;;28.73;26.13;;;5.70;99.90;;;;;;5103084;28;20465;-67
2021/10/13 04:16:03;;;;;;;27.47;24.87;;;5.60;99.90;;;;;;5096304;28;20910;-67
2021/10/13 04:18:31;;;;;;;26.00;24.10;;;5.50;99.90;;;;;;5093797;28;20456;-66
2021/10/13 04:20:58;;;;;;;27.07;24.40;;;5.50;99.90;;;;;;5096628;28;20462;-67
2021/10/13 04:23:25;;;;;;;26.17;23.80;;;5.50;99.90;;;;;;5103115;28;20492;-67
2021/10/13 04:25:53;;;;;;;25.60;23.37;;;5.50;99.90;;;;;;5094371;28;20454;-67
2021/10/13 04:28:21;;;;;;;25.73;23.60;;;5.40;99.90;;;;;;5093331;28;20508;-67
2021/10/13 04:30:48;;;;;;;26.30;23.97;;;5.30;99.90;;;;;;5091526;28;20472;-66
2021/10/13 04:33:15;;;;;;;25.67;23.73;;;5.20;99.90;;;;;;5100328;28;20615;-67
2021/10/13 04:35:43;;;;;;;28.53;24.23;;;5.20;99.90;;;;;;5100726;28;20472;-66
2021/10/13 04:38:10;;;;;;;26.73;24.23;;;5.10;99.90;;;;;;5103300;28;20457;-66
2021/10/13 04:40:38;;;;;;;25.70;23.50;;;5.00;99.90;;;;;;5094137;28;20454;-67
2021/10/13 04:43:05;;;;;;;26.57;24.20;;;4.90;99.90;;;;;;5100218;28;20464;-67
2021/10/13 04:45:33;;;;;;;26.43;24.00;;;4.80;99.90;;;;;;5097201;28;20485;-67
2021/10/13 04:48:00;;;;;;;25.90;23.50;;;4.70;99.90;;;;;;5100313;28;20499;-67
2021/10/13 04:50:27;;;;;;;26.40;24.00;;;4.70;99.90;;;;;;5085213;28;20486;-67
2021/10/13 04:52:54;;;;;;;24.87;23.03;;;4.70;99.90;;;;;;5094498;28;20462;-67
2021/10/13 04:55:21;;;;;;;26.63;24.27;;;4.70;99.90;;;;;;5092900;28;20458;-66
2021/10/13 04:57:48;;;;;;;28.27;25.30;;;4.80;99.90;;;;;;5093564;28;20465;-67
2021/10/13 05:00:15;;;;;;;27.10;24.53;;;4.80;99.90;;;;;;5097320;28;21230;-67
2021/10/13 05:02:43;;;;;;;26.37;23.90;;;5.00;99.90;;;;;;5092482;28;20462;-67
2021/10/13 05:05:10;;;;;;;25.47;23.27;;;5.10;99.90;;;;;;5099429;28;20461;-67
2021/10/13 05:07:37;;;;;;;26.60;23.90;;;5.20;99.90;;;;;;5092233;28;21646;-67
2021/10/13 05:10:05;;;;;;;27.30;24.80;;;5.30;99.90;;;;;;5091005;28;20960;-66
2021/10/13 05:12:32;;;;;;;26.73;24.33;;;5.30;99.90;;;;;;5090155;28;20936;-67
2021/10/13 05:15:00;;;;;;;27.40;25.30;;;5.40;99.90;;;;;;5094211;28;20458;-68
2021/10/13 05:17:28;;;;;;;26.83;24.13;;;5.40;99.90;;;;;;5098090;28;20470;-68
2021/10/13 05:19:56;;;;;;;27.60;24.77;;;5.40;99.90;;;;;;5097995;28;20493;-67
2021/10/13 05:22:23;;;;;;;27.13;24.50;;;5.40;99.90;;;;;;5084253;28;20451;-68
2021/10/13 05:24:52;;;;;;;26.80;24.53;;;5.30;99.90;;;;;;5096941;28;20637;-68
2021/10/13 05:27:19;;;;;;;26.83;24.43;;;5.20;99.90;;;;;;5077762;28;20493;-69
2021/10/13 05:29:46;;;;;;;28.77;26.07;;;5.20;99.90;;;;;;5078236;28;20497;-67
2021/10/13 05:32:13;;;;;;;28.80;26.03;;;5.10;99.90;;;;;;5063600;28;20458;-69
2021/10/13 05:34:40;;;;;;;28.60;26.10;;;5.10;99.90;;;;;;5079442;28;20492;-66
2021/10/13 05:37:08;;;;;;;28.20;25.57;;;5.10;99.90;;;;;;5086939;28;20457;-69
2021/10/13 05:39:35;;;;;;;27.83;25.43;;;5.20;99.90;;;;;;5088224;28;20901;-68
2021/10/13 05:42:02;;;;;;;31.53;28.27;;;5.20;99.90;;;;;;5091661;28;20453;-67
2021/10/13 05:44:29;;;;;;;32.17;29.17;;;5.30;99.90;;;;;;5091818;28;20458;-68
2021/10/13 05:46:56;;;;;;;33.27;29.90;;;5.40;99.90;;;;;;5090416;28;20462;-69
2021/10/13 05:49:23;;;;;;;31.83;29.13;;;5.60;99.90;;;;;;5089412;28;20462;-69
2021/10/13 05:51:49;;;;;;;29.17;26.70;;;5.70;99.90;;;;;;5096731;28;20470;-67
2021/10/13 05:54:17;;;;;;;31.10;28.30;;;5.70;99.90;;;;;;5092284;28;20454;-67
2021/10/13 05:56:49;;;;;;;30.93;28.30;;;5.80;99.90;;;;;;5090861;28;20461;-68
2021/10/13 05:59:16;;;;;;;30.60;27.80;;;5.90;99.90;;;;;;5092126;28;20490;-69
2021/10/13 06:01:43;;;;;;;27.70;25.00;;;6.00;99.90;;;;;;5084734;28;20482;-68
2021/10/13 06:04:10;;;;;;;30.60;28.10;;;6.00;99.90;;;;;;5085029;28;20473;-68
2021/10/13 06:06:37;;;;;;;31.03;28.00;;;6.00;99.90;;;;;;5084528;28;20469;-67
2021/10/13 06:09:04;;;;;;;29.10;26.43;;;6.00;99.90;;;;;;5088396;28;20486;-69
2021/10/13 06:11:32;;;;;;;29.17;26.20;;;6.00;99.90;;;;;;5095485;28;20540;-69
2021/10/13 06:13:59;;;;;;;28.63;26.40;;;6.00;99.90;;;;;;5089300;28;20483;-67
2021/10/13 06:16:26;;;;;;;29.13;26.40;;;6.10;99.90;;;;;;5093622;28;20508;-68
2021/10/13 06:18:53;;;;;;;28.67;25.83;;;6.20;99.90;;;;;;5097201;28;20463;-69
2021/10/13 06:21:21;;;;;;;32.07;25.23;;;6.30;99.90;;;;;;5096885;28;20505;-68
2021/10/13 06:23:48;;;;;;;28.97;26.17;;;6.40;99.90;;;;;;5088617;28;20473;-68
2021/10/13 06:26:15;;;;;;;29.03;26.23;;;6.50;99.90;;;;;;5088531;28;20775;-67
2021/10/13 06:28:43;;;;;;;29.70;26.73;;;6.70;99.90;;;;;;5080575;28;20486;-70
2021/10/13 06:31:10;;;;;;;28.83;26.13;;;6.80;99.90;;;;;;5078147;28;20551;-69
2021/10/13 06:33:38;;;;;;;29.63;26.47;;;6.90;99.90;;;;;;5083315;28;20577;-67
2021/10/13 06:36:06;;;;;;;28.17;25.40;;;7.00;99.90;;;;;;5078284;28;20557;-68
2021/10/13 06:38:34;;;;;;;28.17;25.60;;;7.10;99.90;;;;;;5081137;28;20478;-70
2021/10/13 06:41:01;;;;;;;31.63;25.87;;;7.20;99.90;;;;;;5079685;28;20456;-67
2021/10/13 06:43:28;;;;;;;28.10;25.90;;;7.30;99.90;;;;;;5083880;28;20466;-67
2021/10/13 06:45:56;;;;;;;27.90;25.20;;;7.30;99.90;;;;;;5080490;28;20902;-66
2021/10/13 06:48:23;;;;;;;28.03;25.23;;;7.40;99.90;;;;;;5084458;28;20486;-69
2021/10/13 06:50:51;;;;;;;27.90;25.50;;;7.50;99.90;;;;;;5089064;28;20786;-67
2021/10/13 06:53:18;;;;;;;28.37;25.87;;;7.60;99.90;;;;;;5088977;28;20457;-67
2021/10/13 06:55:45;;;;;;;27.70;25.30;;;7.70;99.90;;;;;;5091824;28;20462;-67
2021/10/13 06:58:13;;;;;;;32.07;26.17;;;7.80;99.90;;;;;;5087500;28;21027;-68
2021/10/13 07:00:40;;;;;;;28.40;25.60;;;7.90;99.90;;;;;;5091524;28;20975;-68
2021/10/13 07:03:08;;;;;;;29.97;26.87;;;7.90;99.90;;;;;;5085727;28;20467;-67
2021/10/13 07:05:35;;;;;;;31.33;25.57;;;7.90;99.90;;;;;;5089627;28;20496;-68
2021/10/13 07:08:02;;;;;;;29.73;26.70;;;7.90;99.90;;;;;;5090846;28;20516;-68
2021/10/13 07:10:29;;;;;;;28.37;25.97;;;7.90;99.90;;;;;;5084776;28;20458;-69
2021/10/13 07:12:57;;;;;;;29.03;25.80;;;7.90;99.90;;;;;;5091268;28;20465;-68
2021/10/13 07:15:24;;;;;;;31.03;26.17;;;7.90;99.90;;;;;;5073380;28;20491;-68
2021/10/13 07:17:50;;;;;;;29.13;26.17;;;7.90;99.90;;;;;;5072665;28;20962;-68
2021/10/13 07:20:19;;;;;;;27.97;25.27;;;8.10;99.90;;;;;;5083635;28;20476;-68
2021/10/13 07:22:46;;;;;;;30.50;25.40;;;8.10;99.90;;;;;;5092332;28;20832;-69
2021/10/13 07:25:14;;;;;;;32.37;25.43;;;8.10;99.90;;;;;;5091037;28;20472;-69
2021/10/13 07:27:41;;;;;;;30.43;27.70;;;8.20;99.90;;;;;;5085208;28;20539;-69
2021/10/13 07:30:13;;;;;;;33.03;29.57;;;8.20;99.90;;;;;;5085898;28;20461;-69
2021/10/13 07:32:40;;;;;;;32.70;28.80;;;8.30;99.90;;;;;;5083964;28;20472;-68
2021/10/13 07:35:08;;;;;;;30.30;27.10;;;8.40;99.90;;;;;;5085737;28;20492;-69
2021/10/13 07:37:36;;;;;;;30.97;27.77;;;8.30;99.90;;;;;;5084618;28;20465;-67
2021/10/13 07:40:05;;;;;;;27.90;25.30;;;8.50;99.90;;;;;;5089081;28;20475;-67
2021/10/13 07:42:33;;;;;;;31.57;28.37;;;8.70;99.90;;;;;;5080932;28;20465;-68
2021/10/13 07:45:00;;;;;;;27.23;24.73;;;8.80;99.90;;;;;;5074572;28;20480;-67
2021/10/13 07:47:27;;;;;;;25.20;22.60;;;9.00;99.90;;;;;;5080742;28;20891;-67
2021/10/13 07:49:54;;;;;;;28.90;23.47;;;9.10;99.90;;;;;;5091393;28;20484;-67
2021/10/13 07:52:21;;;;;;;25.27;23.07;;;9.20;99.90;;;;;;5092626;28;20458;-70
2021/10/13 07:54:49;;;;;;;24.70;22.10;;;9.40;99.90;;;;;;5095228;28;20457;-69
2021/10/13 07:57:16;;;;;;;26.30;23.63;;;9.50;99.90;;;;;;5089830;28;21050;-68
2021/10/13 07:59:43;;;;;;;27.07;24.27;;;9.60;99.90;;;;;;5090124;28;20496;-67
2021/10/13 08:02:10;;;;;;;26.07;23.43;;;9.70;99.90;;;;;;5086193;28;20953;-68
2021/10/13 08:04:37;;;;;;;26.20;23.70;;;9.80;99.90;;;;;;5086726;28;20459;-67
2021/10/13 08:07:04;;;;;;;27.23;24.33;;;9.90;99.90;;;;;;5088187;28;20461;-68
2021/10/13 08:09:32;;;;;;;30.00;24.03;;;10.00;99.90;;;;;;5085096;28;20855;-67
2021/10/13 08:12:01;;;;;;;25.33;22.90;;;9.90;99.90;;;;;;5096982;28;20535;-67
2021/10/13 08:14:28;;;;;;;26.50;23.90;;;10.00;99.90;;;;;;5089417;28;21044;-68
2021/10/13 08:16:57;;;;;;;26.60;24.10;;;10.10;99.90;;;;;;5086665;28;20462;-70
2021/10/13 08:19:24;;;;;;;27.03;24.10;;;10.20;99.90;;;;;;5085877;28;21043;-67
2021/10/13 08:21:51;;;;;;;26.03;23.67;;;10.40;99.90;;;;;;5091850;28;20481;-70
2021/10/13 08:24:18;;;;;;;25.73;22.87;;;10.50;99.90;;;;;;5090189;28;20484;-67
2021/10/13 08:26:45;;;;;;;23.23;21.17;;;10.60;99.90;;;;;;5093285;28;20542;-68
2021/10/13 08:29:13;;;;;;;23.53;21.40;;;10.90;99.90;;;;;;5092198;28;20484;-68
2021/10/13 08:31:41;;;;;;;24.57;22.27;;;10.70;99.90;;;;;;5094872;28;20474;-68
2021/10/13 08:34:08;;;;;;;24.27;21.80;;;10.90;99.90;;;;;;5096092;28;20464;-68
2021/10/13 08:36:35;;;;;;;24.03;22.13;;;11.10;99.90;;;;;;5084333;28;20467;-66
2021/10/13 08:39:01;;;;;;;24.20;21.77;;;11.00;99.90;;;;;;5087635;28;20468;-70
2021/10/13 08:41:28;;;;;;;23.30;21.40;;;11.10;99.90;;;;;;5089980;28;20467;-69
2021/10/13 08:43:55;;;;;;;24.03;22.23;;;11.20;99.90;;;;;;5086806;28;20974;-70
2021/10/13 08:46:23;;;;;;;24.30;21.90;;;11.30;99.90;;;;;;5085266;28;20987;-70
2021/10/13 08:48:50;;;;;;;25.00;22.20;;;11.30;99.90;;;;;;5085903;28;20535;-69
2021/10/13 08:51:17;;;;;;;23.93;22.03;;;11.30;99.90;;;;;;5087476;28;20466;-71
2021/10/13 08:53:44;;;;;;;22.20;20.33;;;11.40;99.90;;;;;;5090468;28;20458;-68
2021/10/13 08:56:11;;;;;;;24.43;22.43;;;11.60;99.90;;;;;;5074254;28;20473;-67
2021/10/13 08:58:40;;;;;;;22.43;20.03;;;11.70;99.90;;;;;;5084149;28;21071;-68
2021/10/13 09:01:13;;;;;;;24.00;21.77;;;11.70;99.90;;;;;;5091363;28;20818;-68
2021/10/13 09:03:46;;;;;;;22.07;20.10;;;11.80;99.90;;;;;;5094199;28;20489;-68
2021/10/13 09:06:18;;;;;;;22.07;20.00;;;11.80;99.90;;;;;;5093277;28;20987;-68
2021/10/13 09:08:57;;;;;;;22.27;20.37;;;11.80;99.90;;;;;;5084764;28;20509;-69
2021/10/13 09:11:32;;;;;;;22.33;20.33;;;12.10;99.90;;;;;;5093288;28;20454;-67
2021/10/13 09:14:11;;;;;;;22.67;20.67;;;12.20;99.90;;;;;;5089726;28;20535;-67
2021/10/13 09:16:50;;;;;;;23.30;21.10;;;12.10;99.90;;;;;;5086493;28;20467;-70
2021/10/13 09:19:20;;;;;;;23.63;21.63;;;11.90;99.90;;;;;;5099953;28;20458;-68
2021/10/13 09:21:48;;;;;;;23.77;21.63;;;11.80;99.90;;;;;;5103336;28;20493;-69
2021/10/13 09:24:17;;;;;;;24.23;22.13;;;11.90;99.90;;;;;;5098309;28;20468;-70
2021/10/13 09:26:45;;;;;;;22.60;20.50;;;12.10;99.90;;;;;;5097340;28;20523;-71
2021/10/13 09:29:12;;;;;;;27.23;19.33;;;12.40;99.90;;;;;;5092518;28;20991;-68
2021/10/13 09:31:39;;;;;;;22.37;20.37;;;12.50;99.90;;;;;;5088345;28;20458;-68
2021/10/13 09:34:08;;;;;;;22.77;20.70;;;12.50;99.90;;;;;;5087668;28;20465;-68
2021/10/13 09:36:40;;;;;;;22.87;21.30;;;12.50;99.90;;;;;;5096688;28;20486;-69
2021/10/13 09:39:09;;;;;;;22.67;20.30;;;12.50;99.90;;;;;;5091721;28;20458;-70
2021/10/13 09:42:05;;;;;;;21.87;20.07;;;12.40;99.90;;;;;;5093290;28;20461;-68
2021/10/13 09:44:35;;;;;;;21.13;19.43;;;12.30;99.90;;;;;;5087762;28;20481;-68
2021/10/13 09:47:05;;;;;;;21.30;19.40;;;12.30;99.90;;;;;;5098696;28;20471;-68
2021/10/13 09:49:37;;;;;;;20.60;18.70;;;12.40;99.90;;;;;;5098322;28;20487;-70
2021/10/13 09:52:11;;;;;;;20.60;18.53;;;12.70;99.90;;;;;;5088585;28;20469;-68
2021/10/13 09:54:39;;;;;;;19.53;17.60;;;12.80;99.90;;;;;;5094179;28;20465;-68
2021/10/13 09:57:17;;;;;;;20.87;19.30;;;13.00;99.90;;;;;;5088870;28;20500;-70
2021/10/13 10:00:02;;;;;;;20.10;18.60;;;13.40;99.90;;;;;;5091335;28;20491;-68
2021/10/13 10:02:31;;;;;;;19.40;17.80;;;13.70;99.90;;;;;;5087227;28;20967;-68
2021/10/13 10:05:01;;;;;;;19.13;17.70;;;14.00;99.90;;;;;;5100940;28;20457;-70
2021/10/13 10:07:30;;;;;;;18.63;17.33;;;14.30;99.90;;;;;;5094403;28;20466;-69
2021/10/13 10:10:08;;;;;;;18.57;17.00;;;14.90;99.90;;;;;;5092074;28;20485;-68
2021/10/13 10:13:00;;;;;;;18.73;17.53;;;15.50;99.90;;;;;;5088487;28;20588;-68
2021/10/13 10:15:47;;;;;;;18.97;17.47;;;16.10;99.90;;;;;;5092616;28;20623;-70
2021/10/13 10:18:26;;;;;;;21.57;19.83;;;16.10;99.90;;;;;;5095750;28;20453;-68
2021/10/13 10:20:54;;;;;;;21.60;19.80;;;15.20;99.90;;;;;;5095868;28;20465;-70
2021/10/13 10:23:31;;;;;;;22.00;20.30;;;14.50;99.90;;;;;;5095837;28;20464;-71
2021/10/13 10:26:01;;;;;;;23.00;20.83;;;14.10;99.90;;;;;;5098565;28;20483;-68
2021/10/13 10:28:56;;;;;;;22.77;20.40;;;13.70;99.90;;;;;;5099907;28;20481;-71
2021/10/13 10:31:32;;;;;;;22.40;20.80;;;13.60;99.90;;;;;;5094517;28;20457;-68
2021/10/13 10:34:13;;;;;;;19.67;18.17;;;13.90;99.90;;;;;;5093729;28;21088;-70
2021/10/13 10:37:14;;;;;;;21.43;17.60;;;14.60;99.90;;;;;;5095049;28;20453;-68
2021/10/13 10:40:04;;;;;;;20.43;18.20;;;15.30;99.90;;;;;;5089662;28;20479;-68
2021/10/13 10:42:55;;;;;;;18.47;16.90;;;15.50;99.90;;;;;;5093080;28;20466;-69
2021/10/13 10:45:23;;;;;;;18.67;17.07;;;15.90;99.90;;;;;;5088407;28;20454;-67
2021/10/13 10:47:53;;;;;;;18.93;17.63;;;16.10;99.90;;;;;;5100781;28;20848;-68
2021/10/13 10:50:35;;;;;;;18.60;17.20;;;15.60;99.90;;;;;;5095910;28;20508;-68
2021/10/13 10:53:21;;;;;;;19.30;17.60;;;15.70;99.90;;;;;;5089470;28;21028;-69
2021/10/13 10:55:51;;;;;;;19.07;17.83;;;15.40;99.90;;;;;;5090763;28;20483;-71
2021/10/13 10:58:22;;;;;;;19.27;17.30;;;15.50;99.90;;;;;;5090019;28;20474;-71
2021/10/13 11:01:01;;;;;;;18.90;17.70;;;15.70;99.90;;;;;;5097152;28;20457;-69
2021/10/13 11:03:34;;;;;;;19.47;17.77;;;15.80;99.90;;;;;;5089566;28;20453;-71
2021/10/13 11:06:13;;;;;;;18.53;17.33;;;15.90;99.90;;;;;;5098467;28;20552;-69
2021/10/13 11:09:03;;;;;;;19.47;18.03;;;15.20;99.90;;;;;;5087943;28;20458;-71
2021/10/13 11:11:33;;;;;;;19.00;17.90;;;14.90;99.90;;;;;;5086592;28;20472;-70
2021/10/13 11:14:11;;;;;;;21.77;19.83;;;14.50;99.90;;;;;;5091128;28;20469;-71
2021/10/13 11:16:40;;;;;;;22.07;20.37;;;14.70;99.90;;;;;;5078404;28;20485;-72
2021/10/13 11:19:17;;;;;;;22.50;20.90;;;15.30;99.90;;;;;;5089200;28;20491;-69
2021/10/13 11:21:45;;;;;;;22.30;20.27;;;15.30;99.90;;;;;;5082392;28;20568;-69
2021/10/13 11:24:12;;;;;;;23.20;21.30;;;15.40;99.90;;;;;;5084461;28;20446;-71
2021/10/13 11:26:44;;;;;;;26.03;23.37;;;15.20;99.90;;;;;;5085425;28;20733;-68
2021/10/13 11:29:19;;;;;;;26.87;24.30;;;15.20;99.90;;;;;;5088197;28;20976;-68
2021/10/13 11:31:46;;;;;;;26.37;24.07;;;14.70;99.90;;;;;;5090433;28;20461;-70
2021/10/13 11:34:17;;;;;;;29.37;26.77;;;14.50;99.90;;;;;;5098106;28;20959;-69
2021/10/13 11:36:56;;;;;;;31.93;27.97;;;14.20;99.90;;;;;;5089819;28;20464;-68
2021/10/13 11:39:26;;;;;;;29.83;26.97;;;13.80;99.90;;;;;;5082192;28;20450;-70
2021/10/13 11:41:57;;;;;;;30.50;27.83;;;13.60;99.90;;;;;;5089323;28;20470;-69
2021/10/13 11:44:25;;;;;;;32.27;29.17;;;13.50;99.90;;;;;;5094545;28;20460;-72
2021/10/13 11:47:00;;;;;;;29.93;27.37;;;13.40;99.90;;;;;;5083167;28;20462;-69
2021/10/13 11:49:27;;;;;;;29.70;27.20;;;13.50;99.90;;;;;;5083456;28;20493;-69
2021/10/13 11:52:13;;;;;;;26.90;24.73;;;13.50;99.90;;;;;;5088495;28;20464;-69
2021/10/13 11:54:40;;;;;;;25.83;23.90;;;13.60;99.90;;;;;;5092912;28;20449;-70
2021/10/13 11:57:09;;;;;;;26.20;23.90;;;13.80;99.90;;;;;;5088682;28;20450;-69
2021/10/13 11:59:38;;;;;;;27.10;24.47;;;13.90;99.90;;;;;;5091466;28;20489;-69
2021/10/13 12:02:17;;;;;;;27.40;25.00;;;14.60;99.90;;;;;;5100748;28;20496;-69
2021/10/13 12:04:52;;;;;;;27.20;24.40;;;15.30;99.90;;;;;;5089530;28;20457;-71
2021/10/13 12:07:25;;;;;;;24.60;22.50;;;15.60;99.90;;;;;;5096555;28;20966;-69
2021/10/13 12:10:04;;;;;;;23.27;21.37;;;15.60;99.90;;;;;;5089051;28;20488;-70
2021/10/13 12:12:33;;;;;;;19.87;18.43;;;16.00;99.90;;;;;;5092244;28;20464;-72
2021/10/13 12:15:00;;;;;;;18.40;17.00;;;16.20;99.90;;;;;;5101331;28;20457;-71
2021/10/13 12:17:29;;;;;;;19.87;17.70;;;16.80;99.90;;;;;;5100343;28;20460;-71
2021/10/13 12:19:58;;;;;;;17.13;16.00;;;17.10;99.90;;;;;;5098946;28;20485;-69
2021/10/13 12:22:26;;;;;;;17.37;16.17;;;17.50;99.90;;;;;;5093926;28;20469;-69
2021/10/13 12:24:53;;;;;;;18.53;16.70;;;17.90;99.90;;;;;;5094915;28;20473;-69
2021/10/13 12:27:30;;;;;;;17.40;16.30;;;18.10;99.90;;;;;;5098267;28;20462;-69
2021/10/13 12:30:00;;;;;;;17.57;16.17;;;18.50;99.90;;;;;;5094113;28;21013;-69
2021/10/13 12:32:29;;;;;;;17.27;16.17;;;18.70;99.90;;;;;;5103179;28;20560;-69
2021/10/13 12:35:14;;;;;;;16.13;15.00;;;19.00;99.90;;;;;;5089637;28;20470;-70
2021/10/13 12:37:49;;;;;;;17.90;16.67;;;18.70;99.90;;;;;;5093497;28;20465;-70
2021/10/13 12:40:18;;;;;;;16.83;15.73;;;18.80;99.90;;;;;;5092046;28;20595;-71
2021/10/13 12:42:46;;;;;;;16.60;15.27;;;18.30;99.90;;;;;;5094017;28;20461;-69
2021/10/13 12:45:15;;;;;;;19.63;17.13;;;17.80;99.90;;;;;;5096839;28;20456;-69
2021/10/13 12:47:42;;;;;;;17.63;16.33;;;17.00;99.90;;;;;;5102694;28;20462;-70